Indianapolis, IN

11:25 PM EDT on July 28, 2016 (GMT -0400)
Thompson Medows | | Change Station

Elev 745 ft 39.69 °N, 86.26 °W | Updated 12 minutes ago

Partly Cloudy
Partly Cloudy
70.9 °F
Feels Like 70.9 °F
N
0.0
Wind Variable Wind from SE

Today
High -- | Low -- °F
--% Chance of Precip.
Yesterday
High -- | Low -- °F
Precip. -- in
Pressure 29.90 in
Visibility 10.0 miles
Clouds Few 25000 ft
Dew Point 66 °F
Humidity 86%
Rainfall in
Snow Depth Not available.
6:41 AM 9:01 PM
Waning Crescent, 26% visible
METAR KIND 290254Z 22005KT 10SM FEW250 23/21 A2992 RMK AO2 SLP124 T02330206 51011 $
Pressure 29.90 in
Visibility 10.0 miles
Clouds Few 25000 ft
Dew Point 66 °F
Humidity 86%
Rainfall in
Snow Depth Not available.
6:41 AM 9:01 PM
Waning Crescent, 26% visible
METAR KIND 290254Z 22005KT 10SM FEW250 23/21 A2992 RMK AO2 SLP124 T02330206 51011 $

10-Day Weather Forecast

Almanac

Astronomy

Jul. 28, 2016 Rise Set
Actual Time
Civil Twilight
Nautical Twilight
Astronomical Twilight
Moon
Length of Visible Light
Length of Day
Tomorrow will be .
, % of the Moon is Illuminated

Today's Extremes

State Highs State Lows

Community

WunderPhotos

Upload Photos

1,928,282 photos uploaded!

WunderBlog® & News

Nearby

Air Quality

  Air Quality AQ Index Pollutant
Not available.

Snow Depth

Station Depth Elevation

Earthquake Activity

City Distance Mag. Time & Date
Minimum magnitude displayed is 2.5.

Coastal Water Temperatures

Place Temperature

Stations

Nearby Weather Stations

Station Location Temp. Windchill Dew Point Humidity Wind Precip. Elev Updated Type
                   

Watches & Warnings

There are currently no watches in effect.